Time;durP1;ratioP1;P1;durP2;ratioP2;P2;SDS_P1;SDS_P2;PMS_P1;PMS_P2;Temp;Humidity;BMP_temperature;BMP_pressure;BME280_temperature;BME280_humidity;BME280_pressure;Samples;Min_cycle;Max_cycle;Signal;HPM_P1;HPM_P2
2022/05/11 00:00:00;;;;;;;8.18;3.92;;;15.40;99.90;;;;;;5095100;28;20676;-76
2022/05/11 00:02:26;;;;;;;7.80;4.07;;;15.50;99.90;;;;;;5090104;28;20361;-76
2022/05/11 00:04:51;;;;;;;9.20;4.60;;;15.40;99.90;;;;;;5087148;28;20091;-76
2022/05/11 00:07:18;;;;;;;8.68;4.55;;;15.40;99.90;;;;;;5089762;28;20110;-75
2022/05/11 00:09:43;;;;;;;7.20;4.25;;;15.40;99.90;;;;;;5082595;28;20082;-76
2022/05/11 00:12:10;;;;;;;6.40;4.13;;;15.40;99.90;;;;;;5083808;28;20040;-76
2022/05/11 00:14:35;;;;;;;7.50;4.28;;;15.40;99.90;;;;;;5092699;28;20523;-76
2022/05/11 00:17:01;;;;;;;7.43;4.40;;;15.40;99.90;;;;;;5085766;28;20047;-77
2022/05/11 00:19:27;;;;;;;8.63;3.95;;;15.40;99.90;;;;;;5083641;28;20043;-76
2022/05/11 00:21:53;;;;;;;6.97;3.88;;;15.50;99.90;;;;;;5088633;28;20048;-76
2022/05/11 00:24:19;;;;;;;10.05;4.00;;;15.40;99.90;;;;;;5085099;28;20503;-76
2022/05/11 00:26:45;;;;;;;7.80;4.80;;;15.40;99.90;;;;;;5084396;28;20048;-75
2022/05/11 00:29:11;;;;;;;9.65;4.63;;;15.40;99.90;;;;;;5091620;28;20495;-76
2022/05/11 00:31:37;;;;;;;8.63;4.40;;;15.40;99.90;;;;;;5087055;28;20048;-78
2022/05/11 00:34:02;;;;;;;9.70;4.50;;;15.40;99.90;;;;;;5086308;28;20040;-77
2022/05/11 00:36:28;;;;;;;8.68;5.05;;;15.50;99.90;;;;;;5086142;28;20047;-76
2022/05/11 00:38:54;;;;;;;7.82;4.30;;;15.40;99.90;;;;;;5086042;28;20075;-78
2022/05/11 00:41:20;;;;;;;7.22;4.53;;;15.40;99.90;;;;;;5096222;28;20115;-79
2022/05/11 00:43:57;;;;;;;9.05;4.68;;;15.40;99.90;;;;;;5106547;28;20040;-76
2022/05/11 00:46:54;;;;;;;8.85;4.45;;;15.40;99.90;;;;;;5087389;28;20593;-77
2022/05/11 00:49:38;;;;;;;7.90;4.43;;;15.40;99.90;;;;;;5098170;28;20051;-76
2022/05/11 00:52:15;;;;;;;6.32;4.43;;;15.40;99.90;;;;;;5081140;28;20105;-76
2022/05/11 00:54:47;;;;;;;8.30;4.78;;;15.40;99.90;;;;;;5085896;28;20052;-77
2022/05/11 00:57:21;;;;;;;8.68;4.68;;;15.40;99.90;;;;;;5094935;28;20114;-77
2022/05/11 00:59:50;;;;;;;9.13;4.85;;;15.40;99.90;;;;;;5097105;28;20483;-76
2022/05/11 01:02:19;;;;;;;7.97;4.75;;;15.40;99.90;;;;;;5097921;28;20124;-75
2022/05/11 01:04:45;;;;;;;6.63;4.90;;;15.40;99.90;;;;;;5103448;28;20043;-76
2022/05/11 01:07:13;;;;;;;7.03;4.55;;;15.30;99.90;;;;;;5097366;28;20508;-77
2022/05/11 01:09:40;;;;;;;7.90;4.53;;;15.30;99.90;;;;;;5095502;28;20240;-75
2022/05/11 01:12:12;;;;;;;6.00;4.45;;;15.30;99.90;;;;;;5099803;28;20039;-76
2022/05/11 01:14:43;;;;;;;7.82;4.88;;;15.30;99.90;;;;;;5112239;28;20051;-77
2022/05/11 01:17:10;;;;;;;8.48;4.50;;;15.30;99.90;;;;;;5107761;28;20044;-76
2022/05/11 01:19:39;;;;;;;;;;;15.30;99.90;;;;;;5108932;28;20044;-77
2022/05/11 01:22:24;;;;;;;11.15;4.80;;;15.20;99.90;;;;;;5111534;28;19927;-76
2022/05/11 01:24:50;;;;;;;8.95;4.90;;;15.20;99.90;;;;;;5092241;28;20150;-76
2022/05/11 01:27:26;;;;;;;9.25;4.80;;;15.20;99.90;;;;;;5088358;28;20601;-76
2022/05/11 01:29:53;;;;;;;7.05;5.07;;;15.20;99.90;;;;;;5105479;28;20073;-76
2022/05/11 01:32:20;;;;;;;8.88;5.22;;;15.10;99.90;;;;;;5100686;28;20139;-76
2022/05/11 01:34:48;;;;;;;;;;;15.20;99.90;;;;;;5107903;28;20044;-77
2022/05/11 01:37:14;;;;;;;7.13;4.70;;;15.10;99.90;;;;;;5106983;28;19973;-77
2022/05/11 01:39:40;;;;;;;9.00;5.03;;;15.10;99.90;;;;;;5112312;28;20047;-76
2022/05/11 01:42:06;;;;;;;7.35;4.70;;;15.10;99.90;;;;;;5107153;28;20047;-78
2022/05/11 01:44:31;;;;;;;8.88;4.75;;;15.10;99.90;;;;;;5090992;28;20055;-78
2022/05/11 01:46:58;;;;;;;7.65;4.95;;;15.10;99.90;;;;;;5105071;28;20817;-76
2022/05/11 01:49:24;;;;;;;10.30;5.57;;;15.10;99.90;;;;;;5111108;28;20074;-76
2022/05/11 01:51:51;;;;;;;8.27;5.10;;;15.10;99.90;;;;;;5112337;28;20078;-77
2022/05/11 01:54:17;;;;;;;9.18;5.25;;;15.10;99.90;;;;;;5090608;28;20403;-77
2022/05/11 01:56:43;;;;;;;8.02;5.20;;;15.10;99.90;;;;;;5103477;28;20044;-77
2022/05/11 01:59:09;;;;;;;8.55;4.90;;;15.10;99.90;;;;;;5096959;28;20058;-77
2022/05/11 02:01:39;;;;;;;7.85;5.15;;;15.10;99.90;;;;;;5100382;28;20036;-77
2022/05/11 02:07:49;;;;;;;8.77;5.32;;;15.10;99.90;;;;;;5094419;28;20036;-77
2022/05/11 02:09:35;;;;;;;9.10;5.38;;;15.10;99.90;;;;;;5107024;28;20499;-78
2022/05/11 02:12:01;;;;;;;6.97;4.90;;;15.20;99.90;;;;;;5105056;28;20117;-76
2022/05/11 02:14:27;;;;;;;7.35;4.55;;;15.10;99.90;;;;;;5099910;28;20448;-78
2022/05/11 02:16:52;;;;;;;8.05;4.55;;;15.20;99.90;;;;;;5109666;28;20054;-76
2022/05/11 02:19:18;;;;;;;9.32;4.80;;;15.10;99.90;;;;;;5091808;28;20903;-77
2022/05/11 02:21:44;;;;;;;8.70;4.65;;;15.10;99.90;;;;;;5091274;28;20380;-77
2022/05/11 02:24:09;;;;;;;7.72;4.65;;;15.10;99.90;;;;;;5098332;28;20483;-77
2022/05/11 02:26:35;;;;;;;6.47;4.13;;;15.10;99.90;;;;;;5099078;28;20040;-77
2022/05/11 02:29:01;;;;;;;7.53;3.97;;;15.20;99.90;;;;;;5109792;28;20113;-76
2022/05/11 02:31:26;;;;;;;6.80;4.10;;;15.10;99.90;;;;;;5110570;28;20054;-77
2022/05/11 02:33:52;;;;;;;8.27;4.38;;;15.10;99.90;;;;;;5094426;27;20059;-78
2022/05/11 02:36:17;;;;;;;6.93;4.05;;;15.10;99.90;;;;;;5094058;28;20399;-77
2022/05/11 02:38:43;;;;;;;6.63;3.92;;;15.20;99.90;;;;;;5108730;28;20132;-78
2022/05/11 02:41:09;;;;;;;7.88;3.90;;;15.10;99.90;;;;;;5111564;28;20126;-77
2022/05/11 02:43:35;;;;;;;6.40;3.83;;;15.10;99.90;;;;;;5109760;28;20159;-78
2022/05/11 02:46:01;;;;;;;6.28;3.70;;;15.10;99.90;;;;;;5102921;28;20047;-76
2022/05/11 02:48:30;;;;;;;6.78;3.90;;;15.20;99.90;;;;;;5092613;28;20380;-77
2022/05/11 02:50:57;;;;;;;6.60;3.80;;;15.10;99.90;;;;;;5091834;28;20592;-77
2022/05/11 02:53:25;;;;;;;7.50;3.83;;;15.10;99.90;;;;;;5106548;28;20043;-76
2022/05/11 02:55:51;;;;;;;;;;;15.10;99.90;;;;;;5095115;28;20071;-77
2022/05/11 02:58:19;;;;;;;6.65;4.10;;;15.10;99.90;;;;;;5086424;28;20438;-77
2022/05/11 03:00:47;;;;;;;9.35;3.78;;;15.00;99.90;;;;;;5096753;28;20131;-78
2022/05/11 03:03:14;;;;;;;6.90;3.65;;;15.00;99.90;;;;;;5106078;28;20185;-78
2022/05/11 03:05:41;;;;;;;8.80;4.07;;;15.00;99.90;;;;;;5097451;28;20079;-76
2022/05/11 03:08:08;;;;;;;6.45;3.50;;;15.00;99.90;;;;;;5097774;28;20050;-77
2022/05/11 03:10:34;;;;;;;6.80;3.30;;;15.00;99.90;;;;;;5110812;28;20058;-77
2022/05/11 03:13:01;;;;;;;8.63;3.65;;;15.10;99.90;;;;;;5105312;27;20083;-74
2022/05/11 03:15:28;;;;;;;9.10;3.90;;;15.10;99.90;;;;;;5107015;28;20031;-75
2022/05/11 03:17:54;;;;;;;;;;;15.00;99.90;;;;;;5110904;28;20350;-74
2022/05/11 03:20:22;;;;;;;6.95;3.67;;;15.00;99.90;;;;;;5108222;28;19924;-74
2022/05/11 03:22:50;;;;;;;6.45;3.65;;;15.00;99.90;;;;;;5109272;28;20054;-75
2022/05/11 03:25:16;;;;;;;8.23;3.88;;;15.00;99.90;;;;;;5103532;28;20542;-74
2022/05/11 03:27:41;;;;;;;10.95;3.90;;;15.00;99.90;;;;;;5108553;28;20039;-75
2022/05/11 03:30:08;;;;;;;8.20;3.80;;;15.00;99.90;;;;;;5098801;28;20132;-75
2022/05/11 03:35:17;;;;;;;10.60;4.55;;;15.00;99.90;;;;;;5088512;28;20113;-78
2022/05/11 03:37:43;;;;;;;7.53;3.97;;;15.00;99.90;;;;;;5090121;28;20056;-77
2022/05/11 03:40:10;;;;;;;8.40;4.32;;;15.00;99.90;;;;;;5088235;28;20040;-77
2022/05/11 03:42:37;;;;;;;8.18;4.45;;;15.00;99.90;;;;;;5089735;28;20094;-79
2022/05/11 03:45:12;;;;;;;9.90;4.50;;;15.00;99.90;;;;;;5089812;28;20036;-78
2022/05/11 03:47:39;;;;;;;8.85;4.35;;;15.00;99.90;;;;;;5093021;28;20047;-77
2022/05/11 03:50:07;;;;;;;7.93;4.20;;;15.00;99.90;;;;;;5109529;28;20126;-78
2022/05/11 03:52:36;;;;;;;9.23;4.22;;;15.10;99.90;;;;;;5106996;28;20059;-77
2022/05/11 03:55:03;;;;;;;9.15;4.55;;;15.00;99.90;;;;;;5104410;28;20133;-77
2022/05/11 03:57:28;;;;;;;8.82;4.40;;;15.00;99.90;;;;;;5109927;28;20035;-77
2022/05/11 03:59:54;;;;;;;8.57;4.30;;;15.00;99.90;;;;;;5110121;28;20050;-77
2022/05/11 04:02:19;;;;;;;7.85;4.32;;;15.00;99.90;;;;;;5105972;28;20046;-77
2022/05/11 04:04:45;;;;;;;8.98;4.68;;;15.00;99.90;;;;;;5108306;28;20050;-77
2022/05/11 04:07:11;;;;;;;6.15;4.35;;;15.00;99.90;;;;;;5108073;28;20368;-78
2022/05/11 04:09:36;;;;;;;10.38;5.10;;;15.00;99.90;;;;;;5107481;28;20043;-78
2022/05/11 04:12:02;;;;;;;8.93;4.50;;;15.00;99.90;;;;;;5105675;28;20488;-76
2022/05/11 04:14:28;;;;;;;7.47;4.63;;;15.00;99.90;;;;;;5109385;28;20049;-78
2022/05/11 04:16:59;;;;;;;8.32;4.63;;;15.00;99.90;;;;;;5107367;28;20208;-78
2022/05/11 04:19:26;;;;;;;7.93;4.45;;;15.00;99.90;;;;;;5109472;28;20050;-77
2022/05/11 04:21:52;;;;;;;7.32;5.22;;;15.00;99.90;;;;;;5105334;28;20396;-78
2022/05/11 04:24:17;;;;;;;9.90;4.85;;;15.10;99.90;;;;;;5067519;28;20055;-77
2022/05/11 04:26:43;;;;;;;8.88;4.85;;;15.00;99.90;;;;;;5068648;28;20059;-78
2022/05/11 04:29:10;;;;;;;10.18;4.63;;;15.10;99.90;;;;;;5105234;28;20039;-79
2022/05/11 04:31:35;;;;;;;8.70;5.17;;;15.00;99.90;;;;;;5102612;28;20047;-78
2022/05/11 04:34:01;;;;;;;9.23;6.00;;;15.10;99.90;;;;;;5108712;28;20188;-77
2022/05/11 04:36:28;;;;;;;12.00;5.97;;;15.00;99.90;;;;;;5108130;28;20097;-77
2022/05/11 04:38:53;;;;;;;12.40;6.35;;;15.00;99.90;;;;;;5109263;28;20062;-78
2022/05/11 04:41:19;;;;;;;8.75;6.00;;;15.00;99.90;;;;;;5104011;28;20039;-79
2022/05/11 04:43:45;;;;;;;9.48;6.60;;;15.10;99.90;;;;;;5108500;28;20107;-77
2022/05/11 04:46:11;;;;;;;12.45;6.15;;;15.10;99.90;;;;;;5100060;28;20040;-77
2022/05/11 04:48:36;;;;;;;8.10;6.15;;;15.10;99.90;;;;;;5088380;28;20048;-77
2022/05/11 04:51:03;;;;;;;9.65;5.78;;;15.10;99.90;;;;;;5087141;28;20048;-78
2022/05/11 04:53:29;;;;;;;10.45;6.20;;;15.10;99.90;;;;;;5088922;28;20127;-77
2022/05/11 04:55:56;;;;;;;9.80;6.40;;;15.10;99.90;;;;;;5088972;28;20048;-77
2022/05/11 04:58:22;;;;;;;10.52;6.43;;;15.10;99.90;;;;;;5107710;28;20094;-78
2022/05/11 05:00:48;;;;;;;7.70;5.90;;;15.10;99.90;;;;;;5107697;28;20052;-78
2022/05/11 05:03:15;;;;;;;11.05;6.82;;;15.10;99.90;;;;;;5108831;28;20046;-76
2022/05/11 05:05:41;;;;;;;10.73;6.60;;;15.20;99.90;;;;;;5098376;28;20036;-77
2022/05/11 05:08:08;;;;;;;9.98;6.57;;;15.20;99.90;;;;;;5107483;28;20376;-76
2022/05/11 05:10:34;;;;;;;8.73;6.67;;;15.30;99.90;;;;;;5101236;28;20040;-78
2022/05/11 05:13:05;;;;;;;8.88;6.68;;;15.30;99.90;;;;;;5087443;28;20048;-78
2022/05/11 05:15:31;;;;;;;12.05;6.88;;;15.30;99.90;;;;;;5092351;28;20474;-79
2022/05/11 05:17:57;;;;;;;10.10;6.30;;;15.30;99.90;;;;;;5106893;28;20044;-80
2022/05/11 05:20:23;;;;;;;10.70;6.90;;;15.30;99.90;;;;;;5107512;28;20505;-77
2022/05/11 05:22:49;;;;;;;11.65;7.22;;;15.40;99.90;;;;;;5107252;28;20119;-76
2022/05/11 05:25:15;;;;;;;9.88;6.90;;;15.40;99.90;;;;;;5104792;28;20410;-75
2022/05/11 05:27:40;;;;;;;10.00;6.95;;;15.50;99.90;;;;;;5092760;28;20048;-76
2022/05/11 05:32:51;;;;;;;11.00;7.78;;;15.50;99.90;;;;;;5104999;28;20079;-76
2022/05/11 05:35:19;;;;;;;11.60;8.02;;;15.50;99.90;;;;;;5100910;28;20095;-77
2022/05/11 05:37:45;;;;;;;13.90;7.93;;;15.60;99.90;;;;;;5107085;28;20549;-76
2022/05/11 05:40:11;;;;;;;10.75;7.28;;;15.60;99.90;;;;;;5101478;28;20051;-77
2022/05/11 05:42:38;;;;;;;10.30;6.80;;;15.60;99.90;;;;;;5089271;28;20203;-76
2022/05/11 05:45:06;;;;;;;11.95;7.32;;;15.60;99.90;;;;;;5089968;28;20298;-76
2022/05/11 05:47:32;;;;;;;10.63;7.32;;;15.70;99.90;;;;;;5090791;28;20377;-77
2022/05/11 05:49:57;;;;;;;8.77;6.60;;;15.70;99.90;;;;;;5090017;28;20052;-76
2022/05/11 05:52:25;;;;;;;10.88;6.25;;;15.70;99.90;;;;;;5108185;28;20055;-76
2022/05/11 05:54:51;;;;;;;11.13;6.75;;;15.70;99.90;;;;;;5111283;28;20040;-77
2022/05/11 05:57:18;;;;;;;10.02;6.50;;;15.80;99.90;;;;;;5099910;28;20047;-77
2022/05/11 05:59:45;;;;;;;10.07;6.23;;;15.70;99.90;;;;;;5111739;28;20044;-75
2022/05/11 06:02:14;;;;;;;9.18;6.68;;;15.80;99.90;;;;;;5106981;28;20105;-79
2022/05/11 06:04:41;;;;;;;9.68;6.55;;;15.80;99.90;;;;;;5105647;28;20039;-76
2022/05/11 06:07:07;;;;;;;9.45;6.28;;;15.80;99.90;;;;;;5082807;28;20040;-75
2022/05/11 06:09:33;;;;;;;11.27;6.95;;;15.90;99.90;;;;;;5088716;28;20213;-74
2022/05/11 06:11:58;;;;;;;8.48;6.10;;;15.90;99.90;;;;;;5089489;28;20048;-75
2022/05/11 06:14:24;;;;;;;11.98;7.00;;;16.00;99.90;;;;;;5090455;28;20076;-75
2022/05/11 06:16:50;;;;;;;11.95;6.50;;;16.00;99.90;;;;;;5088939;28;20106;-77
2022/05/11 06:19:16;;;;;;;11.40;7.13;;;16.10;99.90;;;;;;5108906;28;20043;-80
2022/05/11 06:21:42;;;;;;;8.70;6.32;;;16.10;99.90;;;;;;5111376;27;20089;-78
2022/05/11 06:24:08;;;;;;;10.23;5.97;;;16.20;99.90;;;;;;5101610;28;20130;-77
2022/05/11 06:26:34;;;;;;;10.98;6.10;;;16.20;99.90;;;;;;5089125;28;20139;-79
2022/05/11 06:29:00;;;;;;;8.95;5.53;;;16.30;99.90;;;;;;5089512;28;20047;-77
2022/05/11 06:31:26;;;;;;;10.18;5.15;;;16.30;99.90;;;;;;5090624;28;20487;-79
2022/05/11 06:33:53;;;;;;;10.40;5.65;;;16.40;99.90;;;;;;5089909;28;20054;-78
2022/05/11 06:36:23;;;;;;;8.05;4.88;;;16.40;99.90;;;;;;5109921;28;20750;-76
2022/05/11 06:38:50;;;;;;;6.68;4.78;;;16.50;99.90;;;;;;5093368;28;20093;-80
2022/05/11 06:41:20;;;;;;;8.88;4.32;;;16.50;99.90;;;;;;5110641;28;20039;-79
2022/05/11 06:43:46;;;;;;;10.50;5.43;;;16.60;99.90;;;;;;5110571;28;20067;-79
2022/05/11 06:46:13;;;;;;;9.05;4.88;;;16.70;99.90;;;;;;5110820;28;20035;-79
2022/05/11 06:48:38;;;;;;;12.65;4.70;;;16.70;99.90;;;;;;5105118;28;20170;-78
2022/05/11 06:51:04;;;;;;;8.98;4.53;;;16.80;99.90;;;;;;5089121;28;20507;-79
2022/05/11 06:59:16;;;;;;;8.88;4.20;;;16.80;99.90;;;;;;5084796;28;20392;-76
2022/05/11 07:01:44;;;;;;;11.10;4.63;;;16.80;99.90;;;;;;5110384;28;20127;-79
2022/05/11 07:04:10;;;;;;;10.65;5.47;;;16.90;99.90;;;;;;5094718;28;20131;-77
2022/05/11 07:06:35;;;;;;;9.40;4.50;;;17.00;99.90;;;;;;5103123;27;20035;-79
2022/05/11 07:09:01;;;;;;;10.23;4.90;;;17.00;99.90;;;;;;5088858;28;20048;-81
2022/05/11 07:14:12;;;;;;;10.07;4.30;;;17.20;99.90;;;;;;5089713;28;20048;-77
2022/05/11 07:16:38;;;;;;;10.32;4.03;;;17.30;99.90;;;;;;5088480;28;20056;-78
2022/05/11 07:19:05;;;;;;;7.65;3.50;;;17.40;99.90;;;;;;5099107;28;20413;-78
2022/05/11 07:21:30;;;;;;;7.28;3.90;;;17.50;99.90;;;;;;5101068;28;20131;-80
2022/05/11 07:23:56;;;;;;;7.68;3.10;;;17.50;99.90;;;;;;5088037;28;20115;-80
2022/05/11 07:26:22;;;;;;;7.63;3.10;;;17.60;99.90;;;;;;5097029;28;20471;-77
2022/05/11 07:28:48;;;;;;;8.10;2.75;;;17.60;99.90;;;;;;5097840;28;20487;-76
2022/05/11 07:31:13;;;;;;;7.93;2.90;;;17.80;99.90;;;;;;5088937;28;20131;-76
2022/05/11 07:33:40;;;;;;;9.23;3.03;;;17.90;99.90;;;;;;5108818;28;20040;-75
2022/05/11 07:36:06;;;;;;;11.02;3.30;;;17.90;99.90;;;;;;5093538;28;20437;-78
2022/05/11 07:38:34;;;;;;;11.10;2.92;;;17.90;99.90;;;;;;5106688;28;20036;-76
2022/05/11 07:41:00;;;;;;;10.60;2.65;;;18.00;99.90;;;;;;5107772;28;20047;-80
2022/05/11 07:43:25;;;;;;;8.95;2.60;;;18.10;99.90;;;;;;5102544;28;20035;-79
2022/05/11 07:45:51;;;;;;;8.05;2.63;;;18.10;99.90;;;;;;5095320;28;20036;-80
2022/05/11 07:48:20;;;;;;;6.13;2.55;;;18.20;99.90;;;;;;5094419;28;20043;-78
2022/05/11 07:50:46;;;;;;;8.27;2.63;;;18.20;99.90;;;;;;5087365;28;20996;-77
2022/05/11 07:53:11;;;;;;;9.25;2.63;;;18.30;99.90;;;;;;5090826;28;20104;-76
2022/05/11 07:55:37;;;;;;;6.53;2.38;;;18.20;99.80;;;;;;5105277;28;20964;-75
2022/05/11 08:00:47;;;;;;;5.72;2.53;;;18.20;99.50;;;;;;5088532;28;20087;-76
2022/05/11 08:03:12;;;;;;;7.50;2.10;;;18.20;98.50;;;;;;5108602;28;20071;-78
2022/05/11 08:05:38;;;;;;;6.63;1.77;;;18.20;98.40;;;;;;5107620;28;20126;-76
2022/05/11 08:08:06;;;;;;;5.50;1.63;;;18.20;96.90;;;;;;5102504;28;20099;-75
2022/05/11 08:10:36;;;;;;;4.85;1.67;;;18.30;95.80;;;;;;5094096;27;20039;-77
2022/05/11 08:13:05;;;;;;;6.72;1.92;;;18.30;95.60;;;;;;5109439;28;20044;-77
2022/05/11 08:15:32;;;;;;;6.03;1.90;;;18.30;96.40;;;;;;5109132;28;20062;-75
2022/05/11 08:18:00;;;;;;;4.15;1.50;;;18.30;96.20;;;;;;5099801;28;20517;-76
2022/05/11 08:20:28;;;;;;;;;;;18.30;95.60;;;;;;5081505;28;20048;-76
2022/05/11 08:22:55;;;;;;;7.57;1.88;;;18.20;96.40;;;;;;5090089;28;20371;-72
2022/05/11 08:25:25;;;;;;;7.03;1.50;;;18.20;97.20;;;;;;5096492;28;20044;-80
2022/05/11 08:27:52;;;;;;;6.57;1.83;;;18.20;96.60;;;;;;5089022;28;20055;-78
2022/05/11 08:33:24;;;;;;;6.25;1.80;;;18.20;96.40;;;;;;5102351;28;20399;-77
2022/05/11 08:36:03;;;;;;;5.75;1.77;;;18.20;96.80;;;;;;5090226;28;20127;-75
2022/05/11 08:38:35;;;;;;;8.60;1.98;;;18.30;95.80;;;;;;5092906;28;20406;-77
2022/05/11 08:41:29;;;;;;;5.45;2.00;;;18.30;95.60;;;;;;5080090;28;20032;-77
2022/05/11 08:44:02;;;;;;;5.10;1.60;;;18.40;96.30;;;;;;5070256;28;20487;-79
2022/05/11 08:47:03;;;;;;;6.18;1.75;;;18.50;96.60;;;;;;5098632;28;20455;-79
2022/05/11 08:49:52;;;;;;;6.50;1.90;;;18.60;96.40;;;;;;5089183;28;20048;-79
2022/05/11 08:52:52;;;;;;;9.27;1.98;;;18.80;96.90;;;;;;5087417;28;20408;-78
2022/05/11 08:55:39;;;;;;;6.30;1.67;;;18.90;96.90;;;;;;5086919;28;20055;-75
2022/05/11 08:58:11;;;;;;;7.25;1.85;;;19.10;94.10;;;;;;5093852;28;20047;-74
2022/05/11 09:00:39;;;;;;;4.30;1.58;;;19.20;91.00;;;;;;5101273;28;20042;-74
2022/05/11 09:03:31;;;;;;;4.80;1.45;;;19.20;92.90;;;;;;5083491;28;20052;-76
2022/05/11 09:05:58;;;;;;;6.72;1.50;;;19.20;90.60;;;;;;5086945;28;20041;-72
2022/05/11 09:08:25;;;;;;;;;;;19.30;91.20;;;;;;5088256;28;20483;-72
2022/05/11 09:10:52;;;;;;;7.18;1.60;;;19.30;91.50;;;;;;5073076;28;19924;-73
2022/05/11 09:13:20;;;;;;;8.45;1.63;;;19.20;91.70;;;;;;5092732;28;20176;-71
2022/05/11 09:15:53;;;;;;;6.78;1.55;;;19.20;91.40;;;;;;5109287;28;20506;-73
2022/05/11 09:18:19;;;;;;;12.02;2.10;;;19.30;91.90;;;;;;5090115;28;20055;-76
2022/05/11 09:20:50;;;;;;;7.65;1.80;;;19.30;90.80;;;;;;5095542;28;20048;-72
2022/05/11 09:23:31;;;;;;;6.32;1.73;;;19.40;90.20;;;;;;5110672;28;20495;-72
2022/05/11 09:26:01;;;;;;;8.25;2.00;;;19.40;90.80;;;;;;5072344;28;20048;-72
2022/05/11 09:28:29;;;;;;;8.15;1.63;;;19.40;88.10;;;;;;5070990;28;20052;-72
2022/05/11 09:31:05;;;;;;;6.38;1.75;;;19.50;90.60;;;;;;5103910;28;20628;-75
2022/05/11 09:33:59;;;;;;;5.82;1.70;;;19.50;85.50;;;;;;5107320;28;20102;-72
2022/05/11 09:36:56;;;;;;;6.93;1.60;;;19.70;86.40;;;;;;5100504;28;20440;-71
2022/05/11 09:39:22;;;;;;;;;;;19.70;80.80;;;;;;5106973;28;20055;-72
2022/05/11 09:41:51;;;;;;;7.60;2.15;;;19.60;86.70;;;;;;5106100;28;20594;-74
2022/05/11 09:44:26;;;;;;;10.32;2.38;;;19.60;90.80;;;;;;5072437;28;20046;-73
2022/05/11 09:46:54;;;;;;;7.75;2.03;;;19.70;90.70;;;;;;5097066;28;20104;-73
2022/05/11 09:49:19;;;;;;;7.55;1.80;;;19.80;90.50;;;;;;5103078;28;20471;-70
2022/05/11 09:51:46;;;;;;;6.20;2.20;;;19.90;88.00;;;;;;5098165;28;20084;-72
2022/05/11 09:54:18;;;;;;;8.88;2.15;;;20.00;84.50;;;;;;5085196;28;20055;-72
2022/05/11 09:56:52;;;;;;;6.38;1.95;;;20.10;85.50;;;;;;5091052;28;20090;-72
2022/05/11 09:59:26;;;;;;;11.75;1.90;;;20.20;83.70;;;;;;5097827;28;20089;-73
2022/05/11 10:01:58;;;;;;;8.40;2.10;;;20.20;83.90;;;;;;5091604;28;20041;-77
2022/05/11 10:04:37;;;;;;;9.63;2.00;;;20.30;85.30;;;;;;5102201;28;20043;-75
2022/05/11 10:07:05;;;;;;;9.23;1.48;;;20.40;81.40;;;;;;5090388;28;20036;-73
2022/05/11 10:09:45;;;;;;;9.82;1.60;;;20.40;77.80;;;;;;5091655;28;20461;-74
2022/05/11 10:12:20;;;;;;;8.48;1.90;;;20.40;75.80;;;;;;5091888;28;20040;-71
2022/05/11 10:23:16;;;;;;;9.27;1.60;;;20.60;76.40;;;;;;5095228;28;20049;-72
2022/05/11 10:26:00;;;;;;;6.75;1.80;;;20.70;71.80;;;;;;5098050;28;20044;-71
2022/05/11 10:28:40;;;;;;;8.32;2.40;;;20.70;72.30;;;;;;5097433;28;20058;-70
2022/05/11 10:31:20;;;;;;;8.38;1.77;;;20.70;67.80;;;;;;5100692;28;20052;-71
2022/05/11 10:34:23;;;;;;;9.52;2.20;;;20.70;68.10;;;;;;5101023;28;20044;-70
2022/05/11 10:37:22;;;;;;;6.40;1.80;;;20.70;65.80;;;;;;5086046;28;20052;-74
2022/05/11 10:40:18;;;;;;;7.35;1.73;;;20.80;65.80;;;;;;5037340;28;20520;-74
2022/05/11 10:42:50;;;;;;;6.78;2.05;;;20.90;63.30;;;;;;5083560;28;20044;-73
2022/05/11 10:45:41;;;;;;;8.10;1.80;;;21.00;63.70;;;;;;5088440;28;20074;-74
2022/05/11 10:48:19;;;;;;;13.50;1.90;;;21.00;62.20;;;;;;5109661;28;20432;-75
2022/05/11 10:51:17;;;;;;;5.53;1.70;;;21.10;62.70;;;;;;5104794;28;20043;-74
2022/05/11 10:54:05;;;;;;;4.53;1.40;;;21.20;60.00;;;;;;5067226;28;20050;-72
2022/05/11 10:57:07;;;;;;;10.48;1.67;;;21.10;57.20;;;;;;5085639;28;20028;-72
2022/05/11 10:59:32;;;;;;;9.45;1.42;;;21.10;61.60;;;;;;5087810;28;20399;-72
2022/05/11 11:02:10;;;;;;;7.57;1.95;;;21.20;58.20;;;;;;5086548;28;20138;-72
2022/05/11 11:05:01;;;;;;;9.48;1.85;;;21.30;59.80;;;;;;5089939;28;20093;-74
2022/05/11 11:07:39;;;;;;;7.82;1.80;;;21.40;60.20;;;;;;5090878;28;20035;-75
2022/05/11 11:10:15;;;;;;;10.48;1.75;;;21.50;57.10;;;;;;5086229;28;20502;-72
2022/05/11 11:12:51;;;;;;;7.10;1.67;;;21.40;58.30;;;;;;5088255;28;20054;-74
2022/05/11 11:15:20;;;;;;;8.90;1.42;;;21.50;55.90;;;;;;5089191;28;20394;-74
2022/05/11 11:17:47;;;;;;;8.38;1.90;;;21.50;55.40;;;;;;5089522;28;20044;-74
2022/05/11 11:20:16;;;;;;;6.53;1.90;;;21.60;55.40;;;;;;5090863;28;20099;-74
2022/05/11 11:23:04;;;;;;;8.13;1.38;;;21.60;55.20;;;;;;5109649;28;20043;-74
2022/05/11 11:25:51;;;;;;;7.28;2.03;;;21.70;57.90;;;;;;5091113;28;20047;-74
2022/05/11 11:28:19;;;;;;;8.43;1.40;;;21.70;56.00;;;;;;5104536;28;20126;-75
2022/05/11 11:31:00;;;;;;;7.90;1.27;;;21.80;54.20;;;;;;5107722;28;20048;-75
2022/05/11 11:33:34;;;;;;;7.25;1.40;;;22.00;50.90;;;;;;5103141;28;20094;-75
2022/05/11 11:36:03;;;;;;;6.88;1.58;;;22.00;51.80;;;;;;5095257;28;20036;-75
2022/05/11 11:38:39;;;;;;;5.13;1.40;;;22.20;51.60;;;;;;5109256;28;20130;-74
2022/05/11 11:41:28;;;;;;;4.97;1.42;;;22.30;52.70;;;;;;5099608;28;20052;-74
2022/05/11 11:43:57;;;;;;;5.40;1.10;;;22.40;51.70;;;;;;5093657;28;20126;-75
2022/05/11 11:46:34;;;;;;;3.00;1.00;;;22.40;51.00;;;;;;5097108;28;20043;-75
2022/05/11 11:49:02;;;;;;;4.03;1.33;;;22.40;50.40;;;;;;5110225;28;20368;-70
2022/05/11 11:51:50;;;;;;;8.90;1.20;;;22.50;50.00;;;;;;5099734;28;20602;-73
2022/05/11 11:54:48;;;;;;;3.58;1.13;;;22.50;48.90;;;;;;5089391;28;20040;-73
2022/05/11 11:57:20;;;;;;;8.45;1.10;;;22.40;48.20;;;;;;5052716;28;20060;-75
2022/05/11 11:59:50;;;;;;;4.65;1.10;;;22.40;48.40;;;;;;5086313;28;20451;-73
2022/05/11 12:02:36;;;;;;;7.38;1.05;;;22.40;48.20;;;;;;5086893;28;20399;-75
2022/05/11 12:05:04;;;;;;;5.70;1.23;;;22.50;49.10;;;;;;5108796;28;20043;-73
2022/05/11 12:16:24;;;;;;;3.88;1.08;;;22.70;48.80;;;;;;5084101;28;20059;-74
2022/05/11 12:18:50;;;;;;;9.02;1.20;;;22.80;48.90;;;;;;5080895;28;20459;-73
2022/05/11 12:21:32;;;;;;;8.37;1.20;;;22.80;48.90;;;;;;5094904;28;20071;-73
2022/05/11 12:24:05;;;;;;;9.80;1.20;;;22.90;48.50;;;;;;5108217;28;20059;-72
2022/05/11 12:26:38;;;;;;;9.25;1.45;;;23.00;47.10;;;;;;5086725;28;20508;-72
2022/05/11 12:32:08;;;;;;;5.28;1.00;;;22.80;47.20;;;;;;5089735;28;20510;-72
2022/05/11 12:34:41;;;;;;;4.05;1.13;;;22.80;47.70;;;;;;5089965;28;20043;-73
2022/05/11 12:37:25;;;;;;;7.00;1.40;;;22.90;48.30;;;;;;5106112;28;20273;-72
2022/05/11 12:40:15;;;;;;;3.08;0.98;;;22.90;47.30;;;;;;5089053;28;20036;-74
2022/05/11 12:42:44;;;;;;;4.30;0.95;;;22.90;46.70;;;;;;5087060;28;20510;-73
2022/05/11 12:45:38;;;;;;;7.70;1.13;;;22.90;46.30;;;;;;5085316;28;20105;-74
2022/05/11 12:48:08;;;;;;;6.93;1.00;;;22.90;46.70;;;;;;5079622;28;20048;-72
2022/05/11 12:50:47;;;;;;;6.47;1.10;;;22.80;46.00;;;;;;5079790;28;20190;-73
2022/05/11 12:53:23;;;;;;;4.93;1.10;;;22.70;45.40;;;;;;5089628;28;20104;-74
2022/05/11 12:55:53;;;;;;;6.53;1.50;;;22.80;46.60;;;;;;5098095;28;20127;-72
2022/05/11 12:58:23;;;;;;;8.15;1.33;;;22.90;46.10;;;;;;5072378;28;20495;-72
2022/05/11 13:00:57;;;;;;;8.88;1.45;;;23.00;46.20;;;;;;5077783;28;20136;-73
2022/05/11 13:03:33;;;;;;;4.63;1.20;;;23.10;46.70;;;;;;5085857;28;20146;-73
2022/05/11 13:06:05;;;;;;;3.28;0.90;;;23.20;47.00;;;;;;5086649;28;20044;-74
2022/05/11 13:08:37;;;;;;;6.10;1.20;;;23.30;46.60;;;;;;5092259;28;20036;-73
2022/05/11 13:11:06;;;;;;;4.95;1.30;;;23.30;47.00;;;;;;5085288;28;20130;-73
2022/05/11 13:13:32;;;;;;;5.90;1.05;;;23.50;46.70;;;;;;5085159;28;20397;-74
2022/05/11 13:16:08;;;;;;;9.75;1.45;;;23.50;46.10;;;;;;5086572;28;20048;-73
2022/05/11 13:18:35;;;;;;;5.05;1.20;;;23.50;45.50;;;;;;5076994;28;20048;-71
2022/05/11 13:21:05;;;;;;;4.32;0.95;;;23.30;44.90;;;;;;5085169;28;20101;-73
2022/05/11 13:23:41;;;;;;;6.70;1.45;;;23.10;45.30;;;;;;5084346;28;20036;-71
2022/05/11 13:26:30;;;;;;;8.93;1.27;;;23.20;46.50;;;;;;5091724;28;20597;-72
2022/05/11 13:28:59;;;;;;;4.55;1.25;;;23.20;46.60;;;;;;5085392;28;20278;-73
2022/05/11 13:31:31;;;;;;;8.27;1.83;;;23.10;46.20;;;;;;5082574;28;20119;-73
2022/05/11 13:33:59;;;;;;;5.40;1.30;;;23.10;46.70;;;;;;5083139;28;20074;-72
2022/05/11 13:36:38;;;;;;;5.28;1.10;;;23.10;46.70;;;;;;5079631;28;20032;-73
2022/05/11 13:39:40;;;;;;;5.43;1.30;;;23.20;46.80;;;;;;5080843;28;20097;-72
2022/05/11 13:42:42;;;;;;;6.43;1.40;;;23.40;46.10;;;;;;5104891;28;20087;-73
2022/05/11 13:45:08;;;;;;;5.60;1.30;;;23.50;44.90;;;;;;5027161;28;20127;-71
2022/05/11 13:50:32;;;;;;;6.50;1.25;;;23.40;44.60;;;;;;5094167;28;20048;-71